ESGGGCRR

Guest
Details From ESGG - Goteborg Landvetter
To GCRR - Lanzarote
Flight Number -
Tags decoded
Created
Modified
Stats Distance 2,036 nm / 3,770 km
Max Altitude 0 ft / 0 m
Waypoints 2
Social Downloads 0
Likes 0
Share

Download

Looking for another format? Having issues loading an existing format? Contact us
Advertisement - Login to hide

Notes

Requested: ESGG GCRR

Route

ESGG GCRR

ID Type Via Altitude (ft/m) Position (lat/lon) Dist (leg/tot) Name
O ESGG APT - 0 / 0 57.66284 / 12.27982 - / 0 nm Goteborg Landvetter
O GCRR APT - 0 / 0 28.94547 / -13.60522 2035 / 2035 nm Lanzarote

Altitude Profile

Advertisement - Login to hide

Weather


0- 5 10 15 20 25 30 35+ Temperature / °C

Clouds and Precipitation
Forecast for 2021-07-26 12:00 UTC. Updated 10 hours ago

Ground ~20,000 ft ~40,000 ft Winds

ESGG

Details ICAO ESGG (GOT)
Name Goteborg Landvetter
Region Sweden
Timezone Europe/Stockholm (UTC+2.0)
Stats Elevation 505 ft / 154 m (AMSL)
Location 57.662800° 12.279800°
Runways 1
Magnetic Variation 4.282° E

METAR

ESGG 261850Z 07009KT 9999 SHRA BKN050CB 16/14 Q1012

Decode

TAF

TAF ESGG 261730Z 2618/2718 11009KT CAVOK TEMPO 2618/2704 SHRA BKN045CB PROB40 2618/2620 3500 TSRA PROB40 2700/2705 2500 BR PROB40 2711/2718 SHRA BKN045CB

Decode

Departure Runways

ID Width Length Bearing (true/mag) Surface Threshold Overrun Markings Lighting
03 148 ft / 45 m 10,805 ft / 3,293 m 25.95° / 21.67° ASPHALT 0 ft / 0 m 207 ft / 63 m PREC-APP CENTERLINE EDGE THRESHOLD CALVERT-ILS TDZ
21 148 ft / 45 m 10,805 ft / 3,293 m 205.97° / 201.69° ASPHALT 0 ft / 0 m 207 ft / 63 m PREC-APP CENTERLINE EDGE THRESHOLD CALVERT-ILS TDZ

GCRR

Details ICAO GCRR (ACE)
Name César Manrique-Lanzarote
Region Canary Islands
Timezone Atlantic/Canary (UTC+1.0)
Stats Elevation 47 ft / 14 m (AMSL)
Location 28.945500° -13.605200°
Runways 1
Magnetic Variation 3.564° W

METAR

GCRR 261900Z 36022KT 9999 SCT013 24/19 Q1014

Decode

TAF

TAF GCRR 261400Z 2615/2715 01020KT 9999 SCT015 TX27/2714Z TN20/2706Z PROB40 TEMPO 2615/2702 01020G30KT PROB30 TEMPO 2620/2706 BKN012 PROB40 TEMPO 2702/2715 01020G30KT

Decode

Destination Runways

ID Width Length Bearing (true/mag) Surface Threshold Overrun Markings Lighting
03 148 ft / 45 m 7,887 ft / 2,404 m 26.90° / 30.46° ASPHALT 285 ft / 87 m 236 ft / 72 m PREC-APP CENTERLINE EDGE THRESHOLD MALSF REIL-OMNI
21 148 ft / 45 m 7,887 ft / 2,404 m 206.90° / 210.47° ASPHALT 0 ft / 0 m 486 ft / 148 m PREC-APP CENTERLINE EDGE THRESHOLD MALSF REIL-OMNI

Approach Navaids

Runway Type Ident Frequency Range Bearing (true/mag) Slope Elevation
03 LOC-ILS IRR 109.10 MHz 18 nm / 33 km 26.90° / 30.47 ° - 47 ft / 14 m (AMSL)
03 GS IRR 109.10 MHz 10 nm / 19 km 27.81° / 31.37 ° 3.00° 0 ft / 0 m (AMSL)
03 DME IRR 109.10 MHz 18 nm / 33 km - - 36 ft / 11 m (AMSL)

Popular Alternatives